createdAt,value
2016-02-21T00:00:03.177Z,82.39
2016-02-21T00:01:03.197Z,82.87
2016-02-21T00:02:03.168Z,82.68
2016-02-21T00:03:03.172Z,82.1
2016-02-21T00:04:03.174Z,82.49
2016-02-21T00:05:03.177Z,82.2
2016-02-21T00:06:03.180Z,82.53
2016-02-21T00:07:03.182Z,82.53
2016-02-21T00:08:03.201Z,82.62
2016-02-21T00:09:03.171Z,81.96
2016-02-21T00:10:03.174Z,81.77
2016-02-21T00:11:03.177Z,81.77
2016-02-21T00:12:03.180Z,81.96
2016-02-21T00:13:03.182Z,82.05
2016-02-21T00:14:03.170Z,81.77
2016-02-21T00:15:03.172Z,81.77
2016-02-21T00:16:03.175Z,81.67
2016-02-21T00:17:03.178Z,81.2
2016-02-21T00:18:03.181Z,81.29
2016-02-21T00:19:03.184Z,81.29
2016-02-21T00:20:03.170Z,81.1
2016-02-21T00:21:03.173Z,81.2
2016-02-21T00:22:03.191Z,80.63
2016-02-21T00:23:03.194Z,80.53
2016-02-21T00:24:03.181Z,80.34
2016-02-21T00:25:03.183Z,80.53
2016-02-21T00:26:03.187Z,80.15
2016-02-21T00:27:03.189Z,80.24
2016-02-21T00:28:03.176Z,79.96
2016-02-21T00:29:03.178Z,80.05
2016-02-21T00:30:03.181Z,79.96
2016-02-21T00:31:03.200Z,79.3
2016-02-21T00:32:03.187Z,79.96
2016-02-21T00:33:03.174Z,79.86
2016-02-21T00:34:03.177Z,79.91
2016-02-21T00:35:03.180Z,79.91
2016-02-21T00:36:03.182Z,79.01
2016-02-21T00:37:03.184Z,79.2
2016-02-21T00:38:03.187Z,79.3
2016-02-21T00:39:03.191Z,79.11
2016-02-21T00:40:03.193Z,79.49
2016-02-21T00:41:03.179Z,79.2
2016-02-21T00:42:03.182Z,79.33
2016-02-21T00:43:03.184Z,79.52
2016-02-21T00:44:03.188Z,79.49
2016-02-21T00:45:03.191Z,79.3
2016-02-21T00:46:03.193Z,79.52
2016-02-21T00:47:03.196Z,79.11
2016-02-21T00:48:03.214Z,79.3
2016-02-21T00:49:03.186Z,79.49
2016-02-21T00:50:03.188Z,79.24
2016-02-21T00:51:03.191Z,79.3
2016-02-21T00:52:03.195Z,78.91
2016-02-21T00:53:03.197Z,79.05
2016-02-21T00:54:03.200Z,79.58
2016-02-21T00:55:03.202Z,79.39
2016-02-21T00:56:03.204Z,79.86
2016-02-21T00:57:03.192Z,79.72
2016-02-21T00:58:03.195Z,79.86
2016-02-21T00:59:03.213Z,79.77
2016-02-21T01:00:03.200Z,80
2016-02-21T01:01:03.203Z,79.86
2016-02-21T01:02:03.189Z,79.58
2016-02-21T01:03:03.191Z,79.77
2016-02-21T01:04:03.210Z,79.62
2016-02-21T01:05:03.198Z,79.91
2016-02-21T01:06:03.200Z,79.62
2016-02-21T01:07:03.203Z,79.68
2016-02-21T01:08:03.205Z,79.62
2016-02-21T01:09:03.208Z,79.72
2016-02-21T01:10:03.196Z,79.81
2016-02-21T01:11:03.213Z,80
2016-02-21T01:12:03.200Z,79.52
2016-02-21T01:13:03.204Z,79.52
2016-02-21T01:14:03.206Z,79.96
2016-02-21T01:15:03.209Z,80.1
2016-02-21T01:16:03.211Z,80.1
2016-02-21T01:17:03.198Z,80
2016-02-21T01:18:03.202Z,80.1
2016-02-21T01:19:03.204Z,80.1
2016-02-21T01:20:03.207Z,80.1
2016-02-21T01:21:03.209Z,79.81
2016-02-21T01:22:03.212Z,80
2016-02-21T01:23:03.198Z,80.1
2016-02-21T01:24:03.202Z,80.38
2016-02-21T01:25:03.220Z,80.57
2016-02-21T01:26:03.207Z,80.29
2016-02-21T01:27:03.210Z,80.47
2016-02-21T01:28:03.212Z,80.47
2016-02-21T01:29:03.214Z,80.47
2016-02-21T01:30:03.217Z,80.66
2016-02-21T01:31:03.205Z,80.57
2016-02-21T01:32:03.223Z,80.47
2016-02-21T01:33:03.225Z,80.57
2016-02-21T01:34:03.213Z,81.05
2016-02-21T01:35:03.216Z,80.72
2016-02-21T01:36:03.200Z,80.86
2016-02-21T01:37:03.202Z,80.86
2016-02-21T01:38:03.205Z,80.47
2016-02-21T01:39:03.207Z,80.47
2016-02-21T01:40:03.211Z,81.14
2016-02-21T01:41:03.213Z,80.66
2016-02-21T01:42:03.216Z,80.76
2016-02-21T01:43:03.218Z,80.66
2016-02-21T01:44:03.206Z,80.66
2016-02-21T01:45:03.209Z,80.66
2016-02-21T01:46:03.212Z,80.66
2016-02-21T01:47:03.230Z,80.76
2016-02-21T01:48:03.217Z,80.86
2016-02-21T01:49:03.220Z,81.05
2016-02-21T01:50:03.222Z,81.05
2016-02-21T01:51:03.225Z,80.86
2016-02-21T01:52:03.227Z,81.33
2016-02-21T01:53:03.215Z,81.14
2016-02-21T01:54:03.234Z,81.33
2016-02-21T01:55:03.220Z,81.33
2016-02-21T01:56:03.223Z,81.24
2016-02-21T01:57:03.209Z,81.33
2016-02-21T01:58:03.212Z,81.24
2016-02-21T01:59:03.246Z,81.33
2016-02-21T02:00:03.218Z,81.14
2016-02-21T02:01:03.220Z,80.95
2016-02-21T02:02:03.223Z,81.05
2016-02-21T02:03:03.225Z,81.71
2016-02-21T02:04:03.213Z,80.95
2016-02-21T02:05:03.215Z,80.95
2016-02-21T02:06:03.234Z,81.05
2016-02-21T02:07:03.222Z,81.05
2016-02-21T02:08:03.224Z,81.33
2016-02-21T02:09:03.227Z,81.33
2016-02-21T02:10:03.244Z,81.33
2016-02-21T02:11:03.232Z,80.95
2016-02-21T02:12:03.218Z,81.05
2016-02-21T02:13:03.221Z,81.05
2016-02-21T02:14:03.224Z,80.86
2016-02-21T02:15:03.227Z,81.05
2016-02-21T02:16:03.230Z,80.76
2016-02-21T02:17:03.232Z,80.66
2016-02-21T02:18:03.218Z,80.95
2016-02-21T02:19:03.222Z,80.86
2016-02-21T02:20:03.224Z,80.76
2016-02-21T02:21:03.227Z,80.86
2016-02-21T02:22:03.246Z,80.86
2016-02-21T02:23:03.232Z,80.66
2016-02-21T02:24:03.235Z,80.76
2016-02-21T02:25:03.237Z,81.14
2016-02-21T02:26:03.225Z,80.86
2016-02-21T02:27:03.228Z,80.95
2016-02-21T02:28:03.231Z,80.76
2016-02-21T02:29:03.234Z,80.76
2016-02-21T02:30:03.236Z,80.95
2016-02-21T02:31:03.239Z,80.57
2016-02-21T02:32:03.242Z,80.66
2016-02-21T02:33:03.228Z,80.47
2016-02-21T02:34:03.247Z,80.38
2016-02-21T02:35:03.234Z,80.57
2016-02-21T02:36:03.236Z,80.47
2016-02-21T02:37:03.239Z,80.66
2016-02-21T02:38:03.242Z,80.29
2016-02-21T02:39:03.244Z,80
2016-02-21T02:40:03.232Z,80.38
2016-02-21T02:41:03.235Z,79.91
2016-02-21T02:42:03.238Z,80.19
2016-02-21T02:43:03.240Z,80.19
2016-02-21T02:44:03.243Z,79.72
2016-02-21T02:45:03.245Z,79.52
2016-02-21T02:46:03.248Z,79.52
2016-02-21T02:47:03.250Z,79.52
2016-02-21T02:48:03.238Z,79.81
2016-02-21T02:49:03.240Z,79.81
2016-02-21T02:50:03.243Z,80.1
2016-02-21T02:51:03.246Z,79.24
2016-02-21T02:52:03.241Z,79.62
2016-02-21T02:53:03.219Z,79.33
2016-02-21T02:54:03.212Z,79.52
2016-02-21T02:55:03.205Z,79.24
2016-02-21T02:56:03.199Z,79.24
2016-02-21T02:57:03.195Z,79.24
2016-02-21T02:58:03.194Z,78.57
2016-02-21T02:59:03.194Z,78.99
2016-02-21T03:00:03.193Z,78.42
2016-02-21T03:01:03.193Z,78.67
2016-02-21T03:02:03.193Z,78.71
2016-02-21T03:03:03.179Z,78.57
2016-02-21T03:04:03.195Z,78.86
2016-02-21T03:05:03.181Z,78.96
2016-02-21T03:06:03.182Z,78.19
2016-02-21T03:07:03.184Z,78.19
2016-02-21T03:08:03.170Z,78.48
2016-02-21T03:09:03.173Z,78.29
2016-02-21T03:10:03.192Z,77.91
2016-02-21T03:11:03.178Z,78.14
2016-02-21T03:12:03.180Z,78.29
2016-02-21T03:13:03.183Z,77.81
2016-02-21T03:14:03.170Z,77.81
2016-02-21T03:15:03.189Z,77.95
2016-02-21T03:16:03.175Z,77.81
2016-02-21T03:17:03.178Z,77.62
2016-02-21T03:18:03.180Z,77.66
2016-02-21T03:19:03.183Z,77.62
2016-02-21T03:20:03.185Z,77.81
2016-02-21T03:21:03.173Z,77.62
2016-02-21T03:22:03.191Z,77.09
2016-02-21T03:23:03.194Z,77.05
2016-02-21T03:24:03.182Z,77.34
2016-02-21T03:25:03.184Z,77.15
2016-02-21T03:26:03.187Z,77.24
2016-02-21T03:27:03.190Z,77.24
2016-02-21T03:28:03.176Z,77.34
2016-02-21T03:29:03.179Z,77.19
2016-02-21T03:30:03.182Z,77.15
2016-02-21T03:31:03.185Z,77.34
2016-02-21T03:32:03.203Z,77.24
2016-02-21T03:33:03.190Z,77.34
2016-02-21T03:34:03.192Z,77.15
2016-02-21T03:35:03.195Z,77.24
2016-02-21T03:36:03.182Z,77.37
2016-02-21T03:37:03.185Z,77.53
2016-02-21T03:38:03.188Z,77.43
2016-02-21T03:39:03.191Z,77.15
2016-02-21T03:40:03.194Z,77.24
2016-02-21T03:41:03.196Z,77.43
2016-02-21T03:42:03.198Z,77.28
2016-02-21T03:43:03.186Z,77.34
2016-02-21T03:44:03.189Z,77.24
2016-02-21T03:45:03.191Z,77.15
2016-02-21T03:46:03.194Z,76.96
2016-02-21T03:47:03.197Z,76.96
2016-02-21T03:48:03.215Z,77.05
2016-02-21T03:49:03.202Z,76.76
2016-02-21T03:50:03.188Z,76.57
2016-02-21T03:51:03.208Z,76.57
2016-02-21T03:52:03.194Z,76.48
2016-02-21T03:53:03.197Z,76.52
2016-02-21T03:54:03.199Z,76.57
2016-02-21T03:55:03.202Z,76.76
2016-02-21T03:56:03.205Z,77
2016-02-21T03:57:03.207Z,77
2016-02-21T03:58:03.194Z,77
2016-02-21T03:59:03.198Z,76.81
2016-02-21T04:00:03.216Z,76.61
2016-02-21T04:01:03.203Z,76.61
2016-02-21T04:02:03.205Z,76.52
2016-02-21T04:03:03.208Z,76.81
2016-02-21T04:04:03.212Z,76.61
2016-02-21T04:05:03.198Z,76.52
2016-02-21T04:06:03.217Z,76.04
2016-02-21T04:07:03.219Z,76.61
2016-02-21T04:08:03.206Z,76.33
2016-02-21T04:09:03.208Z,76.23
2016-02-21T04:10:03.211Z,76.23
2016-02-21T04:11:03.213Z,76.9
2016-02-21T04:12:03.216Z,76.61
2016-02-21T04:13:03.204Z,76.61
2016-02-21T04:14:03.206Z,76.76
2016-02-21T04:15:03.225Z,76.71
2016-02-21T04:16:03.211Z,76.61
2016-02-21T04:17:03.214Z,76.61
2016-02-21T04:18:03.217Z,76.71
2016-02-21T04:19:03.220Z,76.71
2016-02-21T04:20:03.223Z,76.52
2016-02-21T04:21:03.241Z,76.23
2016-02-21T04:22:03.228Z,77
2016-02-21T04:23:03.215Z,76.9
2016-02-21T04:24:03.218Z,76.71
2016-02-21T04:25:03.221Z,76.81
2016-02-21T04:26:03.223Z,76.81
2016-02-21T04:27:03.210Z,76.71
2016-02-21T04:28:03.229Z,76.71
2016-02-21T04:29:03.216Z,77
2016-02-21T04:30:03.234Z,76.9
2016-02-21T04:31:03.236Z,76.9
2016-02-21T04:32:03.223Z,76.52
2016-02-21T04:33:03.227Z,77.19
2016-02-21T04:34:03.229Z,77
2016-02-21T04:35:03.217Z,77.09
2016-02-21T04:36:03.219Z,77
2016-02-21T04:37:03.222Z,77
2016-02-21T04:38:03.224Z,76.9
2016-02-21T04:39:03.228Z,77
2016-02-21T04:40:03.229Z,77.37
2016-02-21T04:41:03.233Z,77.24
2016-02-21T04:42:03.235Z,77.19
2016-02-21T04:43:03.222Z,77.62
2016-02-21T04:44:03.224Z,77.37
2016-02-21T04:45:03.227Z,77.47
2016-02-21T04:46:03.230Z,77.37
2016-02-21T04:47:03.233Z,77.19
2016-02-21T04:48:03.236Z,77.19
2016-02-21T04:49:03.222Z,77.47
2016-02-21T04:50:03.241Z,77.37
2016-02-21T04:51:03.227Z,77.47
2016-02-21T04:52:03.230Z,77.09
2016-02-21T04:53:03.232Z,77.37
2016-02-21T04:54:03.235Z,77.37
2016-02-21T04:55:03.239Z,77.19
2016-02-21T04:56:03.241Z,77.37
2016-02-21T04:57:03.244Z,77.56
2016-02-21T04:58:03.231Z,77.19
2016-02-21T04:59:03.234Z,77.47
2016-02-21T05:00:03.236Z,77
2016-02-21T05:01:03.239Z,77.28
2016-02-21T05:02:03.242Z,77.28
2016-02-21T05:03:03.245Z,77.28
2016-02-21T05:04:03.122Z,77.19
2016-02-21T05:05:03.250Z,77
2016-02-21T05:06:03.237Z,77
2016-02-21T05:07:03.239Z,77.09
2016-02-21T05:08:03.242Z,77
2016-02-21T05:09:03.261Z,77.09
2016-02-21T05:10:03.248Z,77
2016-02-21T05:11:03.250Z,77
2016-02-21T05:12:03.253Z,77.28
2016-02-21T05:13:03.255Z,77.09
2016-02-21T05:14:03.242Z,76.71
2016-02-21T05:15:03.262Z,76.71
2016-02-21T05:16:03.248Z,76.9
2016-02-21T05:17:03.251Z,77
2016-02-21T05:18:03.253Z,76.61
2016-02-21T05:19:03.256Z,76.9
2016-02-21T05:20:03.258Z,76.14
2016-02-21T05:21:03.246Z,76.14
2016-02-21T05:22:03.248Z,76.33
2016-02-21T05:23:03.267Z,76.61
2016-02-21T05:24:03.255Z,76.42
2016-02-21T05:25:03.272Z,76.33
2016-02-21T05:26:03.259Z,76.14
2016-02-21T05:27:03.262Z,76.52
2016-02-21T05:28:03.265Z,76.33
2016-02-21T05:29:03.252Z,76.14
2016-02-21T05:30:03.254Z,76.14
2016-02-21T05:31:03.274Z,75.76
2016-02-21T05:32:03.260Z,75.95
2016-02-21T05:33:03.263Z,75.85
2016-02-21T05:34:03.281Z,75.85
2016-02-21T05:35:03.267Z,76.14
2016-02-21T05:36:03.256Z,75.57
2016-02-21T05:37:03.259Z,75.95
2016-02-21T05:38:03.261Z,75.23
2016-02-21T05:39:03.264Z,75.7
2016-02-21T05:40:03.266Z,75.57
2016-02-21T05:41:03.269Z,75.47
2016-02-21T05:42:03.271Z,75.19
2016-02-21T05:43:03.258Z,74.8
2016-02-21T05:44:03.262Z,74.94
2016-02-21T05:45:03.280Z,75.09
2016-02-21T05:46:03.267Z,75.32
2016-02-21T05:47:03.269Z,75.09
2016-02-21T05:48:03.271Z,75.09
2016-02-21T05:49:03.118Z,75.13
2016-02-21T05:50:03.261Z,74.99
2016-02-21T05:51:03.264Z,74.99
2016-02-21T05:52:03.267Z,75.32
2016-02-21T05:53:03.270Z,75.09
2016-02-21T05:54:03.288Z,74.9
2016-02-21T05:55:03.274Z,75.47
2016-02-21T05:56:03.277Z,75.32
2016-02-21T05:57:03.280Z,75.09
2016-02-21T05:58:03.283Z,75.19
2016-02-21T05:59:03.271Z,75.09
2016-02-21T06:00:03.273Z,75.28
2016-02-21T06:01:03.276Z,74.65
2016-02-21T06:02:03.278Z,75.19
2016-02-21T06:03:03.282Z,74.65
2016-02-21T06:04:03.267Z,74.8
2016-02-21T06:05:03.271Z,74.94
2016-02-21T06:06:03.274Z,74.99
2016-02-21T06:07:03.292Z,75.04
2016-02-21T06:08:03.279Z,74.65
2016-02-21T06:09:03.281Z,74.9
2016-02-21T06:10:03.284Z,74.94
2016-02-21T06:11:03.286Z,75.04
2016-02-21T06:12:03.289Z,74.99
2016-02-21T06:13:03.276Z,75.04
2016-02-21T06:14:03.279Z,74.9
2016-02-21T06:15:03.282Z,74.75
2016-02-21T06:16:03.284Z,74.62
2016-02-21T06:17:03.287Z,75.09
2016-02-21T06:18:03.275Z,74.94
2016-02-21T06:19:03.293Z,74.65
2016-02-21T06:20:03.280Z,74.37
2016-02-21T06:21:03.298Z,74.56
2016-02-21T06:22:03.286Z,74.75
2016-02-21T06:23:03.288Z,75.04
2016-02-21T06:24:03.291Z,74.56
2016-02-21T06:25:03.137Z,73.99
2016-02-21T06:26:03.296Z,73.89
2016-02-21T06:27:03.283Z,74.18
2016-02-21T06:28:03.286Z,74.27
2016-02-21T06:29:03.304Z,74.18
2016-02-21T06:30:03.291Z,74.18
2016-02-21T06:31:03.293Z,73.8
2016-02-21T06:32:03.296Z,73.7
2016-02-21T06:33:03.283Z,73.8
2016-02-21T06:34:03.302Z,73.7
2016-02-21T06:35:03.290Z,73.22
2016-02-21T06:36:03.307Z,74.18
2016-02-21T06:37:03.295Z,73.13
2016-02-21T06:38:03.297Z,73.22
2016-02-21T06:39:03.300Z,73.03
2016-02-21T06:40:03.302Z,73.32
2016-02-21T06:41:03.289Z,73.41
2016-02-21T06:42:03.292Z,73.13
2016-02-21T06:43:03.311Z,72.85
2016-02-21T06:44:03.298Z,72.75
2016-02-21T06:45:03.300Z,72.85
2016-02-21T06:46:03.286Z,72.75
2016-02-21T06:47:03.305Z,72.37
2016-02-21T06:48:03.309Z,72.46
2016-02-21T06:49:03.295Z,72.6
2016-02-21T06:50:03.298Z,72.41
2016-02-21T06:51:03.300Z,72.12
2016-02-21T06:52:03.319Z,71.83
2016-02-21T06:53:03.305Z,72.31
2016-02-21T06:54:03.308Z,71.73
2016-02-21T06:55:03.297Z,72.02
2016-02-21T06:56:03.299Z,71.64
2016-02-21T06:57:03.317Z,72.21
2016-02-21T06:58:03.304Z,71.98
2016-02-21T06:59:03.307Z,72.31
2016-02-21T07:00:03.309Z,72.02
2016-02-21T07:01:03.312Z,72.12
2016-02-21T07:02:03.315Z,71.64
2016-02-21T07:03:03.302Z,71.73
2016-02-21T07:04:03.320Z,71.64
2016-02-21T07:05:03.307Z,71.64
2016-02-21T07:06:03.326Z,71.73
2016-02-21T07:07:03.312Z,71.36
2016-02-21T07:08:03.331Z,71.26
2016-02-21T07:09:03.318Z,71.36
2016-02-21T07:10:03.304Z,70.97
2016-02-21T07:11:03.307Z,70.88
2016-02-21T07:12:03.310Z,71.26
2016-02-21T07:13:03.328Z,71.26
2016-02-21T07:14:03.315Z,71.07
2016-02-21T07:15:03.318Z,70.88
2016-02-21T07:16:03.305Z,71.07
2016-02-21T07:17:03.308Z,71.36
2016-02-21T07:18:03.311Z,70.88
2016-02-21T07:19:03.314Z,71.07
2016-02-21T07:20:03.331Z,70.97
2016-02-21T07:21:03.319Z,70.88
2016-02-21T07:22:03.322Z,70.88
2016-02-21T07:23:03.324Z,70.88
2016-02-21T07:24:03.311Z,70.97
2016-02-21T07:25:03.330Z,70.97
2016-02-21T07:26:03.316Z,71.07
2016-02-21T07:27:03.320Z,71.07
2016-02-21T07:28:03.338Z,71.17
2016-02-21T07:29:03.324Z,71.07
2016-02-21T07:30:03.327Z,70.88
2016-02-21T07:31:03.329Z,70.97
2016-02-21T07:32:03.333Z,70.59
2016-02-21T07:33:03.336Z,70.59
2016-02-21T07:34:03.323Z,70.59
2016-02-21T07:35:03.325Z,71.07
2016-02-21T07:36:03.328Z,70.97
2016-02-21T07:37:03.331Z,70.59
2016-02-21T07:38:03.318Z,70.88
2016-02-21T07:39:03.337Z,70.97
2016-02-21T07:40:03.340Z,70.88
2016-02-21T07:41:03.326Z,71.07
2016-02-21T07:42:03.345Z,70.5
2016-02-21T07:43:03.331Z,70.5
2016-02-21T07:44:03.334Z,70.5
2016-02-21T07:45:03.336Z,70.4
2016-02-21T07:46:03.324Z,70.78
2016-02-21T07:47:03.342Z,70.31
2016-02-21T07:48:03.345Z,70.78
2016-02-21T07:49:03.331Z,70.82
2016-02-21T07:50:03.334Z,70.5
2016-02-21T07:51:03.336Z,70.44
2016-02-21T07:52:03.339Z,70.53
2016-02-21T07:53:03.343Z,70.63
2016-02-21T07:54:03.330Z,71.01
2016-02-21T07:55:03.333Z,70.15
2016-02-21T07:56:03.350Z,70.06
2016-02-21T07:57:03.338Z,70.25
2016-02-21T07:58:03.340Z,70.34
2016-02-21T07:59:03.344Z,70.15
2016-02-21T08:00:03.346Z,70.25
2016-02-21T08:01:03.349Z,70.15
2016-02-21T08:02:03.352Z,70.15
2016-02-21T08:03:03.354Z,69.77
2016-02-21T08:04:03.341Z,70.06
2016-02-21T08:05:03.344Z,69.77
2016-02-21T08:06:03.346Z,69.77
2016-02-21T08:07:03.349Z,69.96
2016-02-21T08:08:03.352Z,69.96
2016-02-21T08:09:03.355Z,69.96
2016-02-21T08:10:03.357Z,69.96
2016-02-21T08:11:03.344Z,69.77
2016-02-21T08:12:03.347Z,69.58
2016-02-21T08:13:03.349Z,69.48
2016-02-21T08:14:03.337Z,69.48
2016-02-21T08:15:03.355Z,69.48
2016-02-21T08:16:03.357Z,69.48
2016-02-21T08:17:03.360Z,69.48
2016-02-21T08:18:03.363Z,69.58
2016-02-21T08:19:03.365Z,69.68
2016-02-21T08:20:03.353Z,69.58
2016-02-21T08:21:03.355Z,69.01
2016-02-21T08:22:03.359Z,68.91
2016-02-21T08:23:03.361Z,69.01
2016-02-21T08:24:03.364Z,68.95
2016-02-21T08:25:03.366Z,68.95
2016-02-21T08:26:03.353Z,69.04
2016-02-21T08:27:03.371Z,68.57
2016-02-21T08:28:03.358Z,68.85
2016-02-21T08:29:03.377Z,68.76
2016-02-21T08:30:03.364Z,68.57
2016-02-21T08:31:03.367Z,68.47
2016-02-21T08:32:03.369Z,68.76
2016-02-21T08:33:03.372Z,68.47
2016-02-21T08:34:03.374Z,68.38
2016-02-21T08:35:03.378Z,68.38
2016-02-21T08:36:03.379Z,68.09
2016-02-21T08:37:03.368Z,68.12
2016-02-21T08:38:03.370Z,67.83
2016-02-21T08:39:03.388Z,67.55
2016-02-21T08:40:03.375Z,67.55
2016-02-21T08:41:03.378Z,67.27
2016-02-21T08:42:03.381Z,66.6
2016-02-21T08:43:03.367Z,66.98
2016-02-21T08:44:03.387Z,66.78
2016-02-21T08:45:03.373Z,66.41
2016-02-21T08:46:03.376Z,66.41
2016-02-21T08:47:03.394Z,66.5
2016-02-21T08:48:03.381Z,66.41
2016-02-21T08:49:03.384Z,66.56
2016-02-21T08:50:03.386Z,66.94
2016-02-21T08:51:03.390Z,66.94
2016-02-21T08:52:03.392Z,67.14
2016-02-21T08:53:03.395Z,66.94
2016-02-21T08:54:03.381Z,66.66
2016-02-21T08:55:03.384Z,66.66
2016-02-21T08:56:03.386Z,66.94
2016-02-21T08:57:03.389Z,67.23
2016-02-21T08:58:03.392Z,67.04
2016-02-21T08:59:03.411Z,67.04
2016-02-21T09:00:03.398Z,67.33
2016-02-21T09:01:03.385Z,67.33
2016-02-21T09:02:03.388Z,67.04
2016-02-21T09:03:03.391Z,67.52
2016-02-21T09:04:03.393Z,67.33
2016-02-21T09:05:03.396Z,67.33
2016-02-21T09:06:03.399Z,67.61
2016-02-21T09:07:03.401Z,67.42
2016-02-21T09:08:03.404Z,67.42
2016-02-21T09:09:03.407Z,67.42
2016-02-21T09:10:03.410Z,67.71
2016-02-21T09:11:03.412Z,67.14
2016-02-21T09:12:03.399Z,67.33
2016-02-21T09:13:03.417Z,67.33
2016-02-21T09:14:03.404Z,67.23
2016-02-21T09:15:03.407Z,67.23
2016-02-21T09:16:03.410Z,67.61
2016-02-21T09:17:03.412Z,67.42
2016-02-21T09:18:03.431Z,67.14
2016-02-21T09:19:03.417Z,67.33
2016-02-21T09:20:03.404Z,67.8
2016-02-21T09:21:03.407Z,67.71
2016-02-21T09:22:03.425Z,67.52
2016-02-21T09:23:03.429Z,67.9
2016-02-21T09:24:03.415Z,67.71
2016-02-21T09:25:03.417Z,67.61
2016-02-21T09:26:03.421Z,67.71
2016-02-21T09:27:03.423Z,67.9
2016-02-21T09:28:03.426Z,67.99
2016-02-21T09:29:03.413Z,67.99
2016-02-21T09:30:03.431Z,67.99
2016-02-21T09:31:03.434Z,67.9
2016-02-21T09:32:03.436Z,68.18
2016-02-21T09:33:03.424Z,68.76
2016-02-21T09:34:03.427Z,67.9
2016-02-21T09:35:03.430Z,68.38
2016-02-21T09:36:03.432Z,68.38
2016-02-21T09:37:03.435Z,68.47
2016-02-21T09:38:03.438Z,68.47
2016-02-21T09:39:03.424Z,68.38
2016-02-21T09:40:03.427Z,69.04
2016-02-21T09:41:03.429Z,69.04
2016-02-21T09:42:03.449Z,69.23
2016-02-21T09:43:03.435Z,69.04
2016-02-21T09:44:03.438Z,68.57
2016-02-21T09:45:03.440Z,68.95
2016-02-21T09:46:03.443Z,69.04
2016-02-21T09:47:03.446Z,69.04
2016-02-21T09:48:03.433Z,68.95
2016-02-21T09:49:03.452Z,69.04
2016-02-21T09:50:03.439Z,68.95
2016-02-21T09:51:03.456Z,68.95
2016-02-21T09:52:03.459Z,68.85
2016-02-21T09:53:03.447Z,69.04
2016-02-21T09:54:03.464Z,68.95
2016-02-21T09:55:03.453Z,69.04
2016-02-21T09:56:03.455Z,68.76
2016-02-21T09:57:03.458Z,68.76
2016-02-21T09:58:03.460Z,68.66
2016-02-21T09:59:03.463Z,69.04
2016-02-21T10:00:03.450Z,68.95
2016-02-21T10:01:03.469Z,68.85
2016-02-21T10:02:03.471Z,69.14
2016-02-21T10:03:03.458Z,68.95
2016-02-21T10:04:03.460Z,69.04
2016-02-21T10:05:03.464Z,68.85
2016-02-21T10:06:03.466Z,68.41
2016-02-21T10:07:03.453Z,68.28
2016-02-21T10:08:03.456Z,68.12
2016-02-21T10:09:03.474Z,68.12
2016-02-21T10:10:03.461Z,68.03
2016-02-21T10:11:03.464Z,67.74
2016-02-21T10:12:03.467Z,67.65
2016-02-21T10:13:03.486Z,67.11
2016-02-21T10:14:03.487Z,66.92
2016-02-21T10:15:03.475Z,66.63
2016-02-21T10:16:03.477Z,66.53
2016-02-21T10:17:03.480Z,66.25
2016-02-21T10:18:03.483Z,66.25
2016-02-21T10:19:03.485Z,65.58
2016-02-21T10:20:03.488Z,65.48
2016-02-21T10:21:03.476Z,65.39
2016-02-21T10:22:03.479Z,64.91
2016-02-21T10:23:03.482Z,65.1
2016-02-21T10:24:03.484Z,64.43
2016-02-21T10:25:03.487Z,64.28
2016-02-21T10:26:03.489Z,64.37
2016-02-21T10:27:03.492Z,63.89
2016-02-21T10:28:03.495Z,64.09
2016-02-21T10:29:03.341Z,63.42
2016-02-21T10:30:03.500Z,63.51
2016-02-21T10:31:03.487Z,63.6
2016-02-21T10:32:03.490Z,62.84
2016-02-21T10:33:03.492Z,62.84
2016-02-21T10:34:03.495Z,62.68
2016-02-21T10:35:03.514Z,62.21
2016-02-21T10:36:03.501Z,61.72
2016-02-21T10:37:03.503Z,62.21
2016-02-21T10:38:03.506Z,61.82
2016-02-21T10:39:03.508Z,61.25
2016-02-21T10:40:03.511Z,60.87
2016-02-21T10:41:03.498Z,61.06
2016-02-21T10:42:03.517Z,61.25
2016-02-21T10:43:03.503Z,61.63
2016-02-21T10:44:03.506Z,61.54
2016-02-21T10:45:03.508Z,61.72
2016-02-21T10:46:03.511Z,62.01
2016-02-21T10:47:03.514Z,61.82
2016-02-21T10:48:03.517Z,61.6
2016-02-21T10:49:03.519Z,62.37
2016-02-21T10:50:03.538Z,61.98
2016-02-21T10:51:03.524Z,61.89
2016-02-21T10:52:03.527Z,61.98
2016-02-21T10:53:03.530Z,62.21
2016-02-21T10:54:03.533Z,61.41
2016-02-21T10:55:03.521Z,61.6
2016-02-21T10:56:03.523Z,61.92
2016-02-21T10:57:03.526Z,61.44
2016-02-21T10:58:03.543Z,61.35
2016-02-21T10:59:03.531Z,61.25
2016-02-21T11:00:03.533Z,61.44
2016-02-21T11:01:03.537Z,60.87
2016-02-21T11:02:03.539Z,60.96
2016-02-21T11:03:03.542Z,61.16
2016-02-21T11:04:03.545Z,61.35
2016-02-21T11:05:03.547Z,61.54
2016-02-21T11:06:03.550Z,60.58
2016-02-21T11:07:03.537Z,60.68
2016-02-21T11:08:03.539Z,60.49
2016-02-21T11:09:03.542Z,60.49
2016-02-21T11:10:03.545Z,60.49
2016-02-21T11:11:03.547Z,60.77
2016-02-21T11:12:03.550Z,60.58
2016-02-21T11:13:03.552Z,60.9
2016-02-21T11:14:03.555Z,60.23
2016-02-21T11:15:03.558Z,60.61
2016-02-21T11:16:03.561Z,59.84
2016-02-21T11:17:03.564Z,59.94
2016-02-21T11:18:03.567Z,60.04
2016-02-21T11:19:03.569Z,59.84
2016-02-21T11:20:03.572Z,59.84
2016-02-21T11:21:03.574Z,59.84
2016-02-21T11:22:03.577Z,59.27
2016-02-21T11:23:03.565Z,59.37
2016-02-21T11:24:03.567Z,59.27
2016-02-21T11:25:03.570Z,59.47
2016-02-21T11:26:03.573Z,59.27
2016-02-21T11:27:03.576Z,59.56
2016-02-21T11:28:03.578Z,59.18
2016-02-21T11:29:03.581Z,58.7
2016-02-21T11:30:03.584Z,58.89
2016-02-21T11:31:03.586Z,58.61
2016-02-21T11:32:03.589Z,58.41
2016-02-21T11:33:03.592Z,58.03
2016-02-21T11:34:03.595Z,58.51
2016-02-21T11:35:03.643Z,58.25
2016-02-21T11:36:03.583Z,57.77
2016-02-21T11:37:03.602Z,58.06
2016-02-21T11:38:03.589Z,57.77
2016-02-21T11:39:03.608Z,57.2
2016-02-21T11:40:03.594Z,57.39
2016-02-21T11:41:03.597Z,57.01
2016-02-21T11:42:03.600Z,56.84
2016-02-21T11:43:03.603Z,56.56
2016-02-21T11:44:03.605Z,56.17
2016-02-21T11:45:03.608Z,55.44
2016-02-21T11:46:03.610Z,55.73
2016-02-21T11:47:03.629Z,55.05
2016-02-21T11:48:03.616Z,54.96
2016-02-21T11:49:03.619Z,54.67
2016-02-21T11:50:03.621Z,54.41
2016-02-21T11:51:03.624Z,54.6
2016-02-21T11:52:03.627Z,54.41
2016-02-21T11:53:03.629Z,54.12
2016-02-21T11:54:03.632Z,53.74
2016-02-21T11:55:03.635Z,53.83
2016-02-21T11:56:03.621Z,53.83
2016-02-21T11:57:03.637Z,54.03
2016-02-21T11:58:03.625Z,53.64
2016-02-21T11:59:03.614Z,54.03
2016-02-21T12:00:03.585Z,53.64
2016-02-21T12:01:03.605Z,53.64
2016-02-21T12:02:03.563Z,54.03
2016-02-21T12:03:03.592Z,53.45
2016-02-21T12:04:03.558Z,53.36
2016-02-21T12:05:03.571Z,53.36
2016-02-21T12:06:03.553Z,53.45
2016-02-21T12:07:03.551Z,53.07
2016-02-21T12:08:03.551Z,52.59
2016-02-21T12:09:03.599Z,52.5
2016-02-21T12:10:03.553Z,52.2
2016-02-21T12:11:03.569Z,52.3
2016-02-21T12:12:03.555Z,52.11
2016-02-21T12:13:03.556Z,52.5
2016-02-21T12:14:03.559Z,51.73
2016-02-21T12:15:03.560Z,51.92
2016-02-21T12:16:03.563Z,52.11
2016-02-21T12:17:03.564Z,51.75
2016-02-21T12:18:03.567Z,51.85
2016-02-21T12:19:03.569Z,51.85
2016-02-21T12:20:03.572Z,51.75
2016-02-21T12:21:03.575Z,51.68
2016-02-21T12:22:03.578Z,51.3
2016-02-21T12:23:03.581Z,51.59
2016-02-21T12:24:03.584Z,51.2
2016-02-21T12:25:03.586Z,51.42
2016-02-21T12:26:03.589Z,51.04
2016-02-21T12:27:03.591Z,50.27
2016-02-21T12:28:03.594Z,49.12
2016-02-21T12:29:03.597Z,49.57
2016-02-21T12:30:03.599Z,49.76
2016-02-21T12:31:03.602Z,49.67
2016-02-21T12:32:03.605Z,49.48
2016-02-21T12:33:03.482Z,49.86
2016-02-21T12:34:03.611Z,50.34
2016-02-21T12:35:03.613Z,50.34
2016-02-21T12:36:03.615Z,50.51
2016-02-21T12:37:03.618Z,51.37
2016-02-21T12:38:03.621Z,51.46
2016-02-21T12:39:03.624Z,51.18
2016-02-21T12:40:03.626Z,51.37
2016-02-21T12:41:03.629Z,51.95
2016-02-21T12:42:03.632Z,52.14
2016-02-21T12:43:03.634Z,51.82
2016-02-21T12:44:03.637Z,51.85
2016-02-21T12:45:03.640Z,51.73
2016-02-21T12:46:03.643Z,52.3
2016-02-21T12:47:03.645Z,51.82
2016-02-21T12:48:03.647Z,52.2
2016-02-21T12:49:03.650Z,52.59
2016-02-21T12:50:03.654Z,52.87
2016-02-21T12:51:03.656Z,52.5
2016-02-21T12:52:03.658Z,53.36
2016-02-21T12:53:03.662Z,53.07
2016-02-21T12:54:03.664Z,53.36
2016-02-21T12:55:03.666Z,53.36
2016-02-21T12:56:03.670Z,53.36